createdAt,value
2023-02-24T00:01:52.748Z,5.17
2023-02-24T00:04:22.209Z,5.21
2023-02-24T00:06:50.335Z,5.12
2023-02-24T00:09:21.538Z,5.06
2023-02-24T00:11:54.416Z,4.97
2023-02-24T00:14:24.758Z,4.92
2023-02-24T00:16:53.881Z,4.93
2023-02-24T00:19:24.584Z,4.85
2023-02-24T00:21:54.369Z,4.89
2023-02-24T00:24:29.745Z,4.85
2023-02-24T00:27:00.573Z,4.72
2023-02-24T00:29:30.180Z,4.75
2023-02-24T00:32:00.946Z,4.64
2023-02-24T00:34:30.971Z,4.66
2023-02-24T00:36:59.941Z,4.59
2023-02-24T00:39:33.165Z,4.53
2023-02-24T00:42:05.866Z,4.35
2023-02-24T00:44:35.812Z,4.21
2023-02-24T00:47:05.093Z,4.15
2023-02-24T00:49:35.960Z,4.11
2023-02-24T00:52:06.690Z,4.09
2023-02-24T00:54:38.198Z,4.00
2023-02-24T00:57:08.314Z,3.96
2023-02-24T00:59:37.192Z,3.96
2023-02-24T01:02:07.243Z,3.96
2023-02-24T01:04:37.672Z,3.98
2023-02-24T01:07:11.151Z,3.88
2023-02-24T01:09:42.709Z,3.79
2023-02-24T01:12:29.537Z,3.72
2023-02-24T01:14:57.624Z,3.78
2023-02-24T01:17:26.437Z,3.70
2023-02-24T01:19:55.210Z,3.63
2023-02-24T01:22:23.959Z,3.62
2023-02-24T01:24:53.609Z,3.67
2023-02-24T01:27:21.715Z,3.74
2023-02-24T01:29:50.267Z,3.76
2023-02-24T01:32:21.062Z,3.76
2023-02-24T01:34:52.606Z,3.79
2023-02-24T01:37:21.448Z,3.78
2023-02-24T01:39:50.229Z,3.69
2023-02-24T01:42:22.229Z,3.67
2023-02-24T01:45:22.887Z,3.66
2023-02-24T01:47:52.744Z,3.68
2023-02-24T01:50:23.506Z,3.73
2023-02-24T01:52:56.806Z,3.66
2023-02-24T01:55:29.260Z,3.70
2023-02-24T01:58:01.846Z,3.57
2023-02-24T02:00:37.842Z,3.54
2023-02-24T02:03:12.416Z,3.55
2023-02-24T02:05:42.353Z,3.54
2023-02-24T02:08:11.508Z,3.58
2023-02-24T02:10:44.308Z,3.58
2023-02-24T02:13:16.798Z,3.53
2023-02-24T02:15:57.083Z,3.48
2023-02-24T02:18:35.973Z,3.49
2023-02-24T02:21:56.776Z,3.58
2023-02-24T02:24:49.573Z,3.56
2023-02-24T02:27:32.149Z,3.63
2023-02-24T02:30:45.999Z,3.60
2023-02-24T02:33:53.533Z,3.70
2023-02-24T02:36:28.141Z,3.74
2023-02-24T02:39:05.848Z,3.70
2023-02-24T02:41:41.413Z,3.76
2023-02-24T02:44:13.048Z,3.75
2023-02-24T02:46:46.245Z,3.74
2023-02-24T02:49:20.928Z,3.70
2023-02-24T02:51:54.097Z,3.70
2023-02-24T02:54:29.422Z,3.73
2023-02-24T02:57:03.307Z,3.74
2023-02-24T02:59:33.855Z,3.74
2023-02-24T03:02:11.855Z,3.62
2023-02-24T03:04:43.558Z,3.78
2023-02-24T03:07:17.805Z,3.74
2023-02-24T03:09:52.011Z,3.74
2023-02-24T03:12:23.544Z,3.75
2023-02-24T03:14:57.573Z,3.75
2023-02-24T03:17:28.226Z,3.75
2023-02-24T03:20:02.322Z,3.77
2023-02-24T03:22:37.587Z,3.81
2023-02-24T03:25:07.054Z,3.85
2023-02-24T03:27:48.972Z,3.86
2023-02-24T03:30:22.599Z,3.89
2023-02-24T03:32:56.935Z,3.95
2023-02-24T03:35:30.453Z,3.99
2023-02-24T03:38:01.589Z,4.02
2023-02-24T03:40:35.037Z,4.00
2023-02-24T03:43:09.351Z,4.03
2023-02-24T03:45:39.485Z,4.03
2023-02-24T03:48:11.989Z,4.08
2023-02-24T03:50:42.106Z,4.10
2023-02-24T03:53:41.781Z,4.10
2023-02-24T03:56:23.566Z,4.13
2023-02-24T03:59:06.274Z,4.09
2023-02-24T04:01:43.453Z,4.04
2023-02-24T04:04:27.537Z,4.02
2023-02-24T04:07:12.965Z,4.00
2023-02-24T04:09:48.503Z,3.94
2023-02-24T04:12:23.173Z,4.03
2023-02-24T04:15:04.698Z,3.96
2023-02-24T04:17:39.590Z,3.95
2023-02-24T04:20:13.549Z,4.06
2023-02-24T04:22:50.103Z,4.01
2023-02-24T04:25:24.860Z,4.00
2023-02-24T04:27:56.853Z,4.05
2023-02-24T04:30:28.229Z,4.00
2023-02-24T04:32:57.693Z,3.95
2023-02-24T04:35:28.014Z,3.95
2023-02-24T04:37:58.155Z,4.00
2023-02-24T04:40:28.578Z,4.02
2023-02-24T04:42:56.741Z,4.01
2023-02-24T04:45:27.541Z,3.96
2023-02-24T04:48:00.975Z,3.95
2023-02-24T04:50:32.801Z,3.88
2023-02-24T04:53:02.655Z,3.91
2023-02-24T04:55:34.193Z,3.85
2023-02-24T04:58:03.019Z,3.80
2023-02-24T05:00:35.923Z,3.77
2023-02-24T05:03:06.136Z,3.80
2023-02-24T05:05:34.765Z,3.71
2023-02-24T05:08:04.815Z,3.70
2023-02-24T05:10:41.000Z,3.62
2023-02-24T05:13:11.017Z,3.55
2023-02-24T05:15:41.904Z,3.49
2023-02-24T05:18:14.218Z,3.49
2023-02-24T05:21:03.371Z,3.48
2023-02-24T05:23:34.216Z,3.46
2023-02-24T05:26:09.059Z,3.47
2023-02-24T05:28:38.362Z,3.48
2023-02-24T05:31:09.458Z,3.53
2023-02-24T05:33:38.897Z,3.46
2023-02-24T05:36:09.973Z,3.40
2023-02-24T05:38:39.106Z,3.41
2023-02-24T05:41:15.165Z,3.41
2023-02-24T05:43:48.222Z,3.43
2023-02-24T05:46:16.881Z,3.36
2023-02-24T05:48:45.272Z,3.34
2023-02-24T05:51:13.646Z,3.27
2023-02-24T05:53:42.548Z,3.25
2023-02-24T05:56:12.576Z,3.31
2023-02-24T05:58:40.903Z,3.24
2023-02-24T06:01:16.409Z,3.22
2023-02-24T06:03:48.080Z,3.21
2023-02-24T06:06:16.904Z,3.19
2023-02-24T06:08:50.647Z,3.18
2023-02-24T06:11:21.766Z,3.16
2023-02-24T06:13:50.480Z,3.15
2023-02-24T06:16:19.929Z,3.05
2023-02-24T06:18:51.022Z,3.01
2023-02-24T06:21:20.086Z,3.08
2023-02-24T06:23:48.552Z,3.07
2023-02-24T06:26:19.607Z,3.08
2023-02-24T06:28:50.030Z,3.04
2023-02-24T06:31:18.271Z,3.11
2023-02-24T06:33:46.502Z,3.11
2023-02-24T06:36:15.657Z,3.30
2023-02-24T06:38:44.017Z,3.19
2023-02-24T06:41:12.199Z,3.20
2023-02-24T06:43:41.360Z,3.20
2023-02-24T06:46:13.272Z,3.31
2023-02-24T06:48:41.776Z,3.35
2023-02-24T06:51:13.767Z,3.53
2023-02-24T06:53:43.345Z,3.61
2023-02-24T06:56:15.933Z,3.66
2023-02-24T06:58:45.259Z,3.88
2023-02-24T07:01:16.791Z,3.96
2023-02-24T07:04:03.359Z,4.00
2023-02-24T07:06:34.832Z,4.14
2023-02-24T07:09:07.200Z,4.29
2023-02-24T07:11:36.714Z,4.26
2023-02-24T07:14:06.647Z,4.32
2023-02-24T07:16:37.451Z,4.57
2023-02-24T07:19:11.279Z,4.56
2023-02-24T07:21:40.910Z,4.82
2023-02-24T07:24:09.847Z,4.71
2023-02-24T07:26:41.713Z,4.79
2023-02-24T07:29:11.500Z,4.94
2023-02-24T07:31:43.058Z,5.14
2023-02-24T07:34:15.131Z,5.21
2023-02-24T07:36:50.241Z,5.34
2023-02-24T07:39:19.606Z,5.44
2023-02-24T07:41:49.727Z,5.61
2023-02-24T07:44:20.262Z,5.71
2023-02-24T07:46:50.294Z,5.72
2023-02-24T07:49:20.740Z,5.77
2023-02-24T07:51:52.685Z,6.35
2023-02-24T07:54:22.292Z,6.87
2023-02-24T07:56:57.756Z,7.42
2023-02-24T07:59:27.472Z,7.98
2023-02-24T08:01:57.493Z,8.45
2023-02-24T08:04:27.906Z,8.90
2023-02-24T08:07:03.096Z,9.29
2023-02-24T08:10:09.071Z,9.92
2023-02-24T08:12:42.756Z,10.37
2023-02-24T08:15:22.160Z,10.91
2023-02-24T08:17:53.272Z,10.94
2023-02-24T08:20:26.167Z,11.24
2023-02-24T08:22:55.892Z,11.65
2023-02-24T08:25:35.554Z,11.94
2023-02-24T08:28:09.511Z,11.92
2023-02-24T08:30:40.323Z,12.07
2023-02-24T08:33:16.051Z,12.50
2023-02-24T08:35:45.641Z,12.71
2023-02-24T08:38:17.028Z,12.94
2023-02-24T08:40:55.037Z,12.87
2023-02-24T08:43:33.144Z,13.09
2023-02-24T08:46:06.615Z,13.08
2023-02-24T08:48:38.340Z,13.22
2023-02-24T08:51:11.718Z,13.39
2023-02-24T08:53:41.518Z,13.23
2023-02-24T08:56:12.830Z,13.31
2023-02-24T08:58:47.410Z,13.25
2023-02-24T09:01:24.357Z,13.37
2023-02-24T09:03:57.435Z,13.71
2023-02-24T09:06:35.684Z,13.56
2023-02-24T09:09:20.857Z,13.57
2023-02-24T09:11:50.877Z,13.56
2023-02-24T09:14:28.961Z,14.19
2023-02-24T09:17:06.541Z,14.96
2023-02-24T09:20:01.846Z,16.11
2023-02-24T09:22:57.377Z,17.90
2023-02-24T09:25:40.673Z,18.41
2023-02-24T09:28:17.189Z,19.27
2023-02-24T09:30:54.475Z,19.06
2023-02-24T09:33:25.693Z,18.40
2023-02-24T09:36:14.354Z,18.12
2023-02-24T09:39:02.380Z,18.79
2023-02-24T09:41:53.749Z,19.57
2023-02-24T09:44:29.654Z,19.73
2023-02-24T09:47:09.177Z,19.13
2023-02-24T09:49:48.151Z,19.61
2023-02-24T09:52:19.714Z,20.21
2023-02-24T09:55:10.743Z,22.34
2023-02-24T09:58:13.078Z,23.32
2023-02-24T10:00:46.975Z,24.78
2023-02-24T10:03:41.678Z,23.86
2023-02-24T10:06:20.982Z,22.61
2023-02-24T10:08:58.847Z,21.87
2023-02-24T10:11:35.385Z,21.34
2023-02-24T10:14:07.565Z,20.29
2023-02-24T10:16:44.464Z,20.08
2023-02-24T10:19:24.322Z,21.24
2023-02-24T10:22:02.841Z,22.95
2023-02-24T10:24:38.745Z,22.07
2023-02-24T10:27:17.769Z,21.34
2023-02-24T10:30:05.023Z,21.05
2023-02-24T10:32:42.612Z,20.74
2023-02-24T10:35:17.719Z,20.51
2023-02-24T10:37:46.249Z,20.56
2023-02-24T10:40:26.591Z,19.48
2023-02-24T10:43:10.600Z,18.32
2023-02-24T10:45:45.304Z,18.20
2023-02-24T10:48:40.362Z,17.85
2023-02-24T10:51:20.174Z,17.63
2023-02-24T10:54:05.110Z,17.72
2023-02-24T10:56:44.559Z,17.81
2023-02-24T10:59:41.335Z,19.75
2023-02-24T11:02:29.813Z,20.77
2023-02-24T11:05:20.154Z,20.71
2023-02-24T11:07:54.128Z,21.22
2023-02-24T11:10:32.566Z,21.96
2023-02-24T11:13:19.972Z,21.74
2023-02-24T11:16:08.310Z,21.98
2023-02-24T11:18:39.249Z,22.25
2023-02-24T11:21:12.158Z,21.10
2023-02-24T11:23:43.388Z,21.65
2023-02-24T11:26:17.900Z,22.18
2023-02-24T11:28:59.540Z,22.02
2023-02-24T11:31:45.835Z,21.99
2023-02-24T11:34:24.675Z,22.55
2023-02-24T11:37:00.562Z,22.27
2023-02-24T11:39:45.651Z,23.47
2023-02-24T11:42:17.878Z,22.51
2023-02-24T11:44:54.568Z,23.90
2023-02-24T11:47:29.176Z,25.22
2023-02-24T11:50:06.681Z,25.16
2023-02-24T11:52:39.694Z,25.36
2023-02-24T11:55:21.455Z,24.91
2023-02-24T11:57:53.777Z,24.38
2023-02-24T12:00:28.077Z,23.01
2023-02-24T12:03:04.166Z,22.57
2023-02-24T12:05:37.287Z,22.54
2023-02-24T12:08:11.726Z,21.04
2023-02-24T12:10:47.655Z,21.56
2023-02-24T12:13:22.682Z,21.21
2023-02-24T12:15:59.346Z,20.35
2023-02-24T12:18:34.410Z,20.00
2023-02-24T12:21:07.276Z,20.51
2023-02-24T12:23:37.635Z,20.89
2023-02-24T12:26:18.433Z,20.39
2023-02-24T12:29:02.859Z,20.40
2023-02-24T12:31:42.938Z,20.26
2023-02-24T12:34:16.440Z,20.05
2023-02-24T12:37:07.762Z,20.14
2023-02-24T12:39:48.607Z,20.57
2023-02-24T12:42:26.310Z,20.16
2023-02-24T12:45:02.498Z,19.29
2023-02-24T12:47:44.851Z,19.35
2023-02-24T12:50:38.987Z,19.80
2023-02-24T12:53:17.482Z,20.40
2023-02-24T12:55:55.435Z,21.58
2023-02-24T12:58:27.865Z,22.12
2023-02-24T13:01:08.528Z,22.56
2023-02-24T13:04:05.174Z,23.85
2023-02-24T13:06:48.314Z,23.99
2023-02-24T13:09:23.778Z,24.62
2023-02-24T13:11:59.221Z,25.01
2023-02-24T13:14:31.842Z,24.96
2023-02-24T13:17:19.915Z,25.10
2023-02-24T13:19:52.332Z,24.12
2023-02-24T13:22:29.940Z,24.42
2023-02-24T13:25:12.018Z,24.10
2023-02-24T13:27:43.739Z,25.99
2023-02-24T13:30:28.448Z,25.85
2023-02-24T13:33:06.954Z,26.48
2023-02-24T13:35:38.504Z,25.49
2023-02-24T13:38:23.581Z,24.11
2023-02-24T13:40:52.303Z,24.41
2023-02-24T13:43:27.197Z,23.64
2023-02-24T13:45:59.537Z,24.25
2023-02-24T13:48:43.786Z,23.60
2023-02-24T13:51:29.498Z,23.80
2023-02-24T13:54:12.259Z,23.41
2023-02-24T13:56:45.983Z,23.91
2023-02-24T13:59:49.732Z,23.88
2023-02-24T14:02:20.968Z,23.94
2023-02-24T14:04:51.703Z,23.59
2023-02-24T14:07:25.620Z,22.33
2023-02-24T14:09:58.052Z,21.98
2023-02-24T14:12:28.225Z,22.89
2023-02-24T14:14:57.817Z,22.51
2023-02-24T14:17:30.388Z,22.39
2023-02-24T14:20:14.349Z,21.31
2023-02-24T14:22:47.829Z,21.60
2023-02-24T14:25:17.248Z,22.04
2023-02-24T14:27:48.419Z,21.97
2023-02-24T14:30:25.535Z,22.25
2023-02-24T14:32:54.941Z,21.24
2023-02-24T14:35:30.214Z,20.42
2023-02-24T14:38:01.998Z,20.07
2023-02-24T14:40:30.947Z,20.23
2023-02-24T14:43:00.322Z,19.93
2023-02-24T14:45:30.881Z,20.09
2023-02-24T14:47:59.614Z,20.36
2023-02-24T14:50:31.474Z,19.83
2023-02-24T14:53:05.088Z,19.54
2023-02-24T14:55:37.205Z,19.12
2023-02-24T14:58:12.738Z,18.88
2023-02-24T15:00:58.391Z,18.93
2023-02-24T15:03:31.506Z,18.65
2023-02-24T15:06:06.126Z,18.65
2023-02-24T15:08:39.916Z,18.72
2023-02-24T15:11:19.806Z,18.48
2023-02-24T15:13:51.245Z,17.81
2023-02-24T15:16:23.384Z,17.51
2023-02-24T15:18:53.749Z,17.66
2023-02-24T15:21:29.030Z,17.30
2023-02-24T15:24:03.138Z,17.28
2023-02-24T15:26:34.726Z,17.01
2023-02-24T15:29:13.113Z,16.28
2023-02-24T15:31:41.917Z,16.19
2023-02-24T15:34:21.343Z,16.11
2023-02-24T15:36:53.795Z,16.06
2023-02-24T15:39:28.453Z,15.76
2023-02-24T15:42:09.569Z,15.40
2023-02-24T15:44:38.823Z,15.24
2023-02-24T15:47:23.356Z,15.05
2023-02-24T15:49:51.923Z,14.78
2023-02-24T15:52:24.605Z,14.70
2023-02-24T15:54:56.706Z,14.61
2023-02-24T15:57:25.596Z,14.54
2023-02-24T15:59:54.743Z,14.33
2023-02-24T16:02:25.800Z,14.28
2023-02-24T16:04:54.233Z,14.02
2023-02-24T16:07:26.510Z,13.94
2023-02-24T16:09:58.447Z,13.81
2023-02-24T16:12:31.923Z,13.70
2023-02-24T16:15:04.653Z,13.56
2023-02-24T16:17:37.761Z,13.35
2023-02-24T16:20:09.358Z,13.29
2023-02-24T16:22:38.128Z,13.23
2023-02-24T16:25:09.169Z,13.14
2023-02-24T16:27:37.613Z,13.08
2023-02-24T16:30:07.027Z,13.03
2023-02-24T16:32:35.756Z,12.89
2023-02-24T16:35:08.720Z,12.69
2023-02-24T16:37:38.259Z,12.62
2023-02-24T16:40:21.463Z,12.42
2023-02-24T16:42:51.807Z,12.37
2023-02-24T16:45:23.814Z,12.18
2023-02-24T16:47:52.354Z,12.13
2023-02-24T16:50:24.470Z,12.19
2023-02-24T16:52:52.775Z,12.07
2023-02-24T16:55:22.368Z,11.97
2023-02-24T16:57:50.910Z,11.84
2023-02-24T17:00:23.896Z,11.73
2023-02-24T17:02:53.083Z,11.68
2023-02-24T17:05:23.748Z,11.49
2023-02-24T17:07:55.292Z,11.42
2023-02-24T17:10:26.811Z,11.29
2023-02-24T17:12:58.325Z,11.23
2023-02-24T17:15:27.843Z,11.11
2023-02-24T17:17:56.913Z,11.07
2023-02-24T17:20:25.631Z,10.97
2023-02-24T17:22:54.209Z,10.93
2023-02-24T17:25:27.351Z,10.82
2023-02-24T17:28:00.685Z,10.69
2023-02-24T17:30:31.930Z,10.61
2023-02-24T17:33:03.721Z,10.39
2023-02-24T17:35:32.542Z,10.44
2023-02-24T17:38:01.751Z,10.40
2023-02-24T17:40:31.777Z,10.25
2023-02-24T17:43:00.426Z,10.25
2023-02-24T17:45:29.072Z,10.14
2023-02-24T17:47:57.674Z,10.04
2023-02-24T17:50:28.160Z,9.89
2023-02-24T17:52:58.834Z,9.84
2023-02-24T17:55:28.209Z,9.78
2023-02-24T17:58:00.706Z,9.73
2023-02-24T18:00:32.265Z,9.71
2023-02-24T18:03:03.378Z,9.54
2023-02-24T18:05:32.815Z,9.41
2023-02-24T18:08:01.934Z,9.27
2023-02-24T18:10:31.708Z,9.28
2023-02-24T18:13:03.485Z,9.24
2023-02-24T18:15:33.272Z,9.36
2023-02-24T18:18:05.416Z,9.33
2023-02-24T18:20:37.265Z,9.16
2023-02-24T18:23:06.845Z,9.16
2023-02-24T18:25:36.579Z,9.10
2023-02-24T18:28:09.283Z,9.08
2023-02-24T18:30:41.480Z,9.02
2023-02-24T18:33:12.041Z,8.99
2023-02-24T18:35:41.414Z,8.91
2023-02-24T18:38:12.238Z,8.97
2023-02-24T18:40:41.842Z,8.78
2023-02-24T18:43:12.057Z,8.73
2023-02-24T18:45:41.950Z,8.57
2023-02-24T18:48:12.209Z,8.49
2023-02-24T18:50:41.612Z,8.42
2023-02-24T18:53:11.101Z,8.32
2023-02-24T18:55:40.440Z,8.27
2023-02-24T18:58:09.353Z,8.21
2023-02-24T19:00:42.050Z,8.12
2023-02-24T19:03:12.369Z,8.09
2023-02-24T19:05:42.089Z,8.05
2023-02-24T19:08:11.576Z,8.00
2023-02-24T19:10:40.905Z,8.07
2023-02-24T19:13:10.437Z,7.96
2023-02-24T19:15:42.139Z,7.87
2023-02-24T19:18:12.261Z,7.98
2023-02-24T19:20:45.452Z,7.67
2023-02-24T19:23:14.975Z,7.84
2023-02-24T19:25:45.585Z,7.79
2023-02-24T19:28:17.209Z,7.57
2023-02-24T19:30:47.989Z,7.64
2023-02-24T19:33:17.781Z,7.70
2023-02-24T19:35:47.908Z,7.71
2023-02-24T19:38:22.040Z,7.55
2023-02-24T19:40:51.758Z,7.53
2023-02-24T19:43:21.549Z,7.45
2023-02-24T19:45:52.457Z,7.43
2023-02-24T19:48:22.076Z,7.48
2023-02-24T19:50:52.730Z,7.49
2023-02-24T19:53:22.234Z,7.62
2023-02-24T19:55:52.305Z,7.60
2023-02-24T19:58:25.513Z,7.52
2023-02-24T20:01:02.086Z,7.58
2023-02-24T20:03:31.517Z,7.54
2023-02-24T20:06:04.850Z,7.46
2023-02-24T20:08:37.527Z,7.41
2023-02-24T20:11:07.941Z,7.35
2023-02-24T20:13:37.146Z,7.25
2023-02-24T20:16:11.234Z,7.15
2023-02-24T20:18:41.197Z,7.05
2023-02-24T20:21:18.835Z,6.92
2023-02-24T20:23:50.176Z,6.90
2023-02-24T20:26:20.957Z,6.82
2023-02-24T20:28:52.507Z,6.73
2023-02-24T20:31:26.969Z,6.72
2023-02-24T20:33:58.777Z,6.58
2023-02-24T20:36:30.621Z,6.37
2023-02-24T20:39:04.185Z,6.34
2023-02-24T20:41:34.960Z,6.23
2023-02-24T20:44:05.967Z,6.14
2023-02-24T20:46:39.381Z,6.25
2023-02-24T20:49:13.476Z,6.25
2023-02-24T20:51:43.709Z,6.12
2023-02-24T20:54:14.925Z,6.18
2023-02-24T20:56:45.923Z,6.14
2023-02-24T20:59:16.778Z,6.43
2023-02-24T21:01:48.973Z,6.46
2023-02-24T21:04:21.579Z,6.51
2023-02-24T21:06:52.391Z,6.55
2023-02-24T21:09:21.631Z,6.40
2023-02-24T21:11:51.880Z,6.51
2023-02-24T21:14:23.598Z,6.31
2023-02-24T21:16:56.224Z,6.42
2023-02-24T21:19:26.617Z,6.23
2023-02-24T21:21:55.192Z,6.13
2023-02-24T21:24:24.203Z,6.20
2023-02-24T21:26:53.504Z,6.22
2023-02-24T21:29:22.220Z,5.97
2023-02-24T21:31:56.086Z,5.94
2023-02-24T21:34:25.135Z,6.07
2023-02-24T21:36:53.796Z,6.16
2023-02-24T21:39:23.125Z,6.01
2023-02-24T21:41:53.224Z,5.85
2023-02-24T21:44:21.395Z,5.94
2023-02-24T21:46:49.953Z,5.82
2023-02-24T21:49:20.089Z,5.79
2023-02-24T21:51:52.028Z,5.95
2023-02-24T21:54:20.737Z,5.81
2023-02-24T21:56:49.423Z,5.67
2023-02-24T21:59:17.814Z,5.48
2023-02-24T22:01:47.208Z,5.52
2023-02-24T22:04:19.151Z,5.43
2023-02-24T22:06:49.192Z,5.35
2023-02-24T22:09:20.192Z,5.64
2023-02-24T22:11:49.548Z,5.55
2023-02-24T22:14:18.050Z,5.46
2023-02-24T22:16:46.413Z,5.52
2023-02-24T22:19:14.796Z,5.50
2023-02-24T22:21:43.254Z,5.60
2023-02-24T22:24:16.131Z,5.63
2023-02-24T22:26:44.814Z,5.64
2023-02-24T22:29:13.108Z,5.86
2023-02-24T22:31:43.832Z,6.02
2023-02-24T22:34:13.181Z,5.88
2023-02-24T22:36:41.510Z,5.75
2023-02-24T22:39:09.721Z,6.10
2023-02-24T22:41:39.370Z,5.90
2023-02-24T22:44:08.169Z,5.77
2023-02-24T22:46:38.173Z,5.67
2023-02-24T22:49:06.632Z,5.64
2023-02-24T22:51:35.360Z,5.74
2023-02-24T22:54:06.834Z,5.53
2023-02-24T22:56:35.836Z,5.57
2023-02-24T22:59:05.391Z,5.29
2023-02-24T23:01:48.018Z,5.30
2023-02-24T23:04:18.252Z,5.68
2023-02-24T23:06:47.608Z,5.73
2023-02-24T23:09:19.905Z,5.73
2023-02-24T23:11:49.006Z,5.60
2023-02-24T23:14:18.961Z,5.52
2023-02-24T23:16:53.669Z,5.42
2023-02-24T23:19:22.212Z,5.20
2023-02-24T23:21:52.405Z,5.08
2023-02-24T23:24:21.759Z,5.22
2023-02-24T23:26:54.008Z,5.00
2023-02-24T23:29:24.007Z,4.94
2023-02-24T23:31:53.068Z,4.88
2023-02-24T23:34:21.379Z,4.85
2023-02-24T23:36:49.890Z,4.71
2023-02-24T23:39:20.769Z,4.77
2023-02-24T23:41:49.506Z,4.90
2023-02-24T23:44:17.669Z,4.92
2023-02-24T23:46:47.279Z,4.75
2023-02-24T23:49:15.987Z,4.34
2023-02-24T23:51:48.546Z,4.39
2023-02-24T23:54:17.496Z,4.51
2023-02-24T23:56:46.580Z,4.72
2023-02-24T23:59:15.263Z,4.43
